Terminal Aerodrome Forecast
Issued by NWS Sioux Falls, SD

Home | Current Version | Previous Version | Graphics & Text | Print | Product List | Glossary On
Versions: 1 2 3 4 5 6 7 8 9 10 11 12 13
000
FTUS43 KFSD 171739
TAFSUX
TAF
KSUX 171739Z 1718/1818 19011G15KT P6SM SKC
     FM180200 16010KT P6SM FEW250
     FM180700 15007KT P6SM BKN150 WS020/14040KT
     FM180900 16008KT P6SM BKN130
     FM181500 18008KT P6SM BKN200=

USA.gov is the U.S. government's official web portal to all federal, state and local government web resources and services.